createdAt,value
2022-08-21T00:00:46.372Z,97627.25
2022-08-21T00:03:14.797Z,97631.28
2022-08-21T00:05:44.524Z,97639.41
2022-08-21T00:08:13.951Z,97634.00
2022-08-21T00:10:42.131Z,97637.56
2022-08-21T00:13:10.180Z,97629.09
2022-08-21T00:15:38.720Z,97639.25
2022-08-21T00:18:07.162Z,97627.44
2022-08-21T00:20:35.226Z,97638.78
2022-08-21T00:23:03.714Z,97631.16
2022-08-21T00:25:33.240Z,97628.78
2022-08-21T00:28:02.757Z,97625.41
2022-08-21T00:30:30.761Z,97625.25
2022-08-21T00:32:58.963Z,97626.09
2022-08-21T00:35:30.036Z,97620.16
2022-08-21T00:37:58.972Z,97616.59
2022-08-21T00:40:28.670Z,97616.28
2022-08-21T00:42:58.318Z,97609.03
2022-08-21T00:45:26.396Z,97612.88
2022-08-21T00:47:56.176Z,97609.66
2022-08-21T00:50:24.243Z,97615.75
2022-08-21T00:52:52.140Z,97610.50
2022-08-21T00:55:23.468Z,97604.44
2022-08-21T00:57:53.271Z,97607.97
2022-08-21T01:00:25.018Z,97606.47
2022-08-21T01:02:52.949Z,97606.47
2022-08-21T01:05:21.101Z,97596.81
2022-08-21T01:07:49.508Z,97601.56
2022-08-21T01:10:24.020Z,97603.41
2022-08-21T01:12:53.015Z,97600.69
2022-08-21T01:15:22.426Z,97605.78
2022-08-21T01:17:50.582Z,97608.50
2022-08-21T01:20:18.596Z,97606.63
2022-08-21T01:22:48.308Z,97617.78
2022-08-21T01:25:17.204Z,97609.50
2022-08-21T01:27:45.221Z,97612.00
2022-08-21T01:30:15.790Z,97610.84
2022-08-21T01:32:44.066Z,97607.97
2022-08-21T01:35:12.524Z,97607.47
2022-08-21T01:37:40.382Z,97608.81
2022-08-21T01:40:11.608Z,97609.19
2022-08-21T01:42:39.654Z,97612.88
2022-08-21T01:45:08.324Z,97612.03
2022-08-21T01:47:36.285Z,97612.38
2022-08-21T01:50:05.338Z,97608.97
2022-08-21T01:52:33.332Z,97608.50
2022-08-21T01:55:01.275Z,97609.50
2022-08-21T01:57:30.577Z,97606.47
2022-08-21T01:59:58.539Z,97613.53
2022-08-21T02:02:26.932Z,97607.31
2022-08-21T02:04:54.885Z,97602.56
2022-08-21T02:07:23.040Z,97600.91
2022-08-21T02:09:50.917Z,97592.63
2022-08-21T02:12:19.213Z,97586.34
2022-08-21T02:14:48.533Z,97593.94
2022-08-21T02:17:16.546Z,97600.72
2022-08-21T02:19:44.549Z,97597.19
2022-08-21T02:22:12.900Z,97586.00
2022-08-21T02:24:53.964Z,97589.38
2022-08-21T02:27:26.175Z,97593.78
2022-08-21T02:29:57.255Z,97582.63
2022-08-21T02:32:25.173Z,97587.19
2022-08-21T02:34:53.330Z,97585.69
2022-08-21T02:37:21.882Z,97585.16
2022-08-21T02:39:49.943Z,97580.28
2022-08-21T02:42:17.893Z,97589.22
2022-08-21T02:44:45.828Z,97580.44
2022-08-21T02:47:15.770Z,97578.56
2022-08-21T02:49:43.612Z,97579.75
2022-08-21T02:52:12.954Z,97580.75
2022-08-21T02:54:41.373Z,97584.16
2022-08-21T02:57:09.279Z,97578.06
2022-08-21T02:59:37.293Z,97575.69
2022-08-21T03:02:05.960Z,97573.34
2022-08-21T03:04:35.281Z,97577.53
2022-08-21T03:07:03.400Z,97581.59
2022-08-21T03:09:33.105Z,97576.84
2022-08-21T03:12:01.004Z,97577.66
2022-08-21T03:14:29.461Z,97576.47
2022-08-21T03:16:57.417Z,97583.75
2022-08-21T03:19:25.414Z,97574.59
2022-08-21T03:21:54.623Z,97578.47
2022-08-21T03:24:22.526Z,97576.63
2022-08-21T03:26:50.840Z,97579.50
2022-08-21T03:29:18.692Z,97569.53
2022-08-21T03:31:46.646Z,97572.91
2022-08-21T03:34:14.927Z,97583.31
2022-08-21T03:36:43.190Z,97574.88
2022-08-21T03:39:12.527Z,97572.00
2022-08-21T03:41:40.434Z,97577.28
2022-08-21T03:44:08.430Z,97573.06
2022-08-21T03:46:36.268Z,97580.63
2022-08-21T03:49:04.637Z,97586.50
2022-08-21T03:51:34.597Z,97580.91
2022-08-21T03:54:02.514Z,97571.50
2022-08-21T03:56:31.926Z,97576.59
2022-08-21T03:58:59.786Z,97576.94
2022-08-21T04:01:27.815Z,97575.50
2022-08-21T04:03:55.661Z,97575.38
2022-08-21T04:06:23.535Z,97584.69
2022-08-21T04:08:51.504Z,97589.09
2022-08-21T04:11:19.900Z,97588.25
2022-08-21T04:13:49.780Z,97584.34
2022-08-21T04:16:17.784Z,97581.84
2022-08-21T04:18:46.174Z,97588.53
2022-08-21T04:21:14.154Z,97592.09
2022-08-21T04:23:42.049Z,97592.75
2022-08-21T04:26:09.928Z,97588.66
2022-08-21T04:28:37.844Z,97594.72
2022-08-21T04:31:07.748Z,97594.41
2022-08-21T04:33:35.615Z,97601.19
2022-08-21T04:36:03.934Z,97601.84
2022-08-21T04:38:36.535Z,97605.59
2022-08-21T04:41:06.434Z,97606.94
2022-08-21T04:43:34.403Z,97600.22
2022-08-21T04:46:02.473Z,97597.69
2022-08-21T04:48:31.976Z,97593.50
2022-08-21T04:51:02.175Z,97603.25
2022-08-21T04:53:32.592Z,97599.09
2022-08-21T04:56:02.460Z,97596.72
2022-08-21T04:58:30.366Z,97602.97
2022-08-21T05:00:58.819Z,97603.81
2022-08-21T05:03:26.785Z,97602.66
2022-08-21T05:05:56.036Z,97596.25
2022-08-21T05:08:24.459Z,97597.09
2022-08-21T05:10:54.145Z,97608.75
2022-08-21T05:13:24.975Z,97602.66
2022-08-21T05:15:52.886Z,97614.00
2022-08-21T05:18:20.800Z,97606.78
2022-08-21T05:20:48.755Z,97601.38
2022-08-21T05:23:18.019Z,97609.03
2022-08-21T05:25:46.095Z,97611.53
2022-08-21T05:28:14.188Z,97606.78
2022-08-21T05:30:42.633Z,97613.75
2022-08-21T05:33:10.996Z,97610.19
2022-08-21T05:35:39.990Z,97619.63
2022-08-21T05:38:16.616Z,97615.91
2022-08-21T05:40:47.939Z,97618.31
2022-08-21T05:43:15.978Z,97617.09
2022-08-21T05:45:44.504Z,97612.53
2022-08-21T05:48:13.810Z,97607.81
2022-08-21T05:50:42.098Z,97602.06
2022-08-21T05:53:10.712Z,97611.69
2022-08-21T05:55:44.161Z,97610.88
2022-08-21T05:58:16.770Z,97617.94
2022-08-21T06:00:44.839Z,97610.34
2022-08-21T06:03:14.086Z,97609.16
2022-08-21T06:05:42.111Z,97608.31
2022-08-21T06:08:10.183Z,97610.72
2022-08-21T06:10:38.284Z,97613.41
2022-08-21T06:13:06.791Z,97617.78
2022-08-21T06:15:36.068Z,97618.13
2022-08-21T06:18:03.988Z,97618.97
2022-08-21T06:20:32.578Z,97623.38
2022-08-21T06:23:00.624Z,97629.47
2022-08-21T06:25:28.653Z,97623.38
2022-08-21T06:28:03.445Z,97613.72
2022-08-21T06:30:32.432Z,97621.34
2022-08-21T06:33:02.564Z,97617.25
2022-08-21T06:35:32.014Z,97612.03
2022-08-21T06:37:59.982Z,97612.69
2022-08-21T06:40:30.001Z,97619.31
2022-08-21T06:42:58.734Z,97615.94
2022-08-21T06:45:31.717Z,97608.78
2022-08-21T06:48:02.085Z,97604.75
2022-08-21T06:50:31.239Z,97619.59
2022-08-21T06:53:04.000Z,97619.78
2022-08-21T06:55:32.009Z,97616.56
2022-08-21T06:58:00.101Z,97617.72
2022-08-21T07:00:28.559Z,97606.50
2022-08-21T07:02:56.564Z,97611.91
2022-08-21T07:05:27.195Z,97606.09
2022-08-21T07:07:55.136Z,97608.50
2022-08-21T07:10:23.177Z,97598.75
2022-08-21T07:12:52.585Z,97604.16
2022-08-21T07:15:28.691Z,97613.66
2022-08-21T07:17:58.241Z,97613.53
2022-08-21T07:20:27.757Z,97613.53
2022-08-21T07:22:57.348Z,97606.19
2022-08-21T07:25:25.431Z,97607.69
2022-08-21T07:27:53.337Z,97610.34
2022-08-21T07:30:21.810Z,97608.06
2022-08-21T07:32:50.942Z,97605.34
2022-08-21T07:35:19.798Z,97610.72
2022-08-21T07:37:50.151Z,97609.13
2022-08-21T07:40:19.152Z,97609.44
2022-08-21T07:42:48.782Z,97609.59
2022-08-21T07:45:16.679Z,97611.75
2022-08-21T07:47:48.953Z,97606.81
2022-08-21T07:50:18.051Z,97605.41
2022-08-21T07:52:47.246Z,97619.41
2022-08-21T07:55:17.679Z,97613.78
2022-08-21T07:57:45.658Z,97605.94
2022-08-21T08:00:15.412Z,97606.31
2022-08-21T08:02:43.526Z,97604.19
2022-08-21T08:05:12.157Z,97605.78
2022-08-21T08:07:40.118Z,97602.88
2022-08-21T08:10:08.927Z,97598.19
2022-08-21T08:12:38.349Z,97597.91
2022-08-21T08:15:07.393Z,97605.59
2022-08-21T08:17:35.272Z,97605.13
2022-08-21T08:20:03.608Z,97608.41
2022-08-21T08:22:31.511Z,97603.97
2022-08-21T08:25:00.690Z,97599.09
2022-08-21T08:27:29.018Z,97599.56
2022-08-21T08:29:58.497Z,97599.31
2022-08-21T08:32:29.211Z,97594.84
2022-08-21T08:34:57.187Z,97592.59
2022-08-21T08:37:25.543Z,97597.44
2022-08-21T08:39:56.930Z,97595.88
2022-08-21T08:42:32.714Z,97594.47
2022-08-21T08:45:05.308Z,97590.19
2022-08-21T08:47:33.701Z,97590.09
2022-08-21T08:50:04.510Z,97590.63
2022-08-21T08:52:34.959Z,97583.81
2022-08-21T08:55:05.686Z,97591.28
2022-08-21T08:57:33.713Z,97585.91
2022-08-21T09:00:06.334Z,97587.84
2022-08-21T09:02:36.247Z,97580.31
2022-08-21T09:05:04.276Z,97579.31
2022-08-21T09:07:39.115Z,97578.63
2022-08-21T09:10:16.219Z,97576.03
2022-08-21T09:12:51.166Z,97575.53
2022-08-21T09:15:26.451Z,97572.94
2022-08-21T09:18:09.540Z,97565.94
2022-08-21T09:20:40.231Z,97567.28
2022-08-21T09:23:16.075Z,97570.72
2022-08-21T09:25:45.270Z,97563.22
2022-08-21T09:28:15.196Z,97564.28
2022-08-21T09:30:44.865Z,97562.47
2022-08-21T09:33:14.394Z,97571.91
2022-08-21T09:35:50.904Z,97562.19
2022-08-21T09:38:27.029Z,97562.47
2022-08-21T09:40:59.339Z,97558.06
2022-08-21T09:43:27.453Z,97558.81
2022-08-21T09:46:11.126Z,97561.22
2022-08-21T09:48:44.467Z,97563.41
2022-08-21T09:51:14.033Z,97561.16
2022-08-21T09:53:45.114Z,97566.97
2022-08-21T09:56:37.655Z,97560.47
2022-08-21T09:59:15.671Z,97551.88
2022-08-21T10:01:49.094Z,97559.50
2022-08-21T10:04:17.317Z,97550.66
2022-08-21T10:06:45.224Z,97559.91
2022-08-21T10:09:20.953Z,97545.84
2022-08-21T10:11:53.783Z,97544.34
2022-08-21T10:14:33.105Z,97540.16
2022-08-21T10:17:07.686Z,97539.13
2022-08-21T10:19:39.255Z,97531.13
2022-08-21T10:22:12.909Z,97540.19
2022-08-21T10:24:48.354Z,97545.19
2022-08-21T10:27:18.646Z,97541.66
2022-08-21T10:29:51.488Z,97529.66
2022-08-21T10:32:31.469Z,97526.31
2022-08-21T10:35:05.010Z,97537.00
2022-08-21T10:37:41.132Z,97543.88
2022-08-21T10:40:15.180Z,97530.69
2022-08-21T10:42:50.452Z,97533.44
2022-08-21T10:45:25.828Z,97525.66
2022-08-21T10:47:58.148Z,97524.00
2022-08-21T10:50:31.739Z,97520.63
2022-08-21T10:53:08.669Z,97518.69
2022-08-21T10:55:40.347Z,97518.34
2022-08-21T10:58:11.404Z,97518.75
2022-08-21T11:00:42.929Z,97508.00
2022-08-21T11:03:15.065Z,97515.31
2022-08-21T11:05:50.554Z,97509.19
2022-08-21T11:08:20.907Z,97502.75
2022-08-21T11:10:59.445Z,97517.00
2022-08-21T11:13:31.611Z,97511.94
2022-08-21T11:16:03.155Z,97512.56
2022-08-21T11:18:36.011Z,97507.97
2022-08-21T11:21:07.202Z,97504.31
2022-08-21T11:23:41.158Z,97502.63
2022-08-21T11:26:11.054Z,97496.72
2022-08-21T11:28:41.030Z,97505.94
2022-08-21T11:31:15.061Z,97507.47
2022-08-21T11:33:54.485Z,97498.34
2022-08-21T11:36:25.388Z,97501.56
2022-08-21T11:38:56.414Z,97502.09
2022-08-21T11:41:27.661Z,97506.94
2022-08-21T11:43:58.053Z,97507.56
2022-08-21T11:46:33.292Z,97499.72
2022-08-21T11:49:14.347Z,97497.38
2022-08-21T11:51:46.642Z,97492.63
2022-08-21T11:54:18.954Z,97499.47
2022-08-21T11:56:48.889Z,97492.09
2022-08-21T11:59:21.833Z,97495.22
2022-08-21T12:01:51.677Z,97491.72
2022-08-21T12:04:26.869Z,97503.00
2022-08-21T12:06:54.968Z,97491.59
2022-08-21T12:09:36.206Z,97503.41
2022-08-21T12:12:07.365Z,97508.25
2022-08-21T12:14:40.083Z,97502.81
2022-08-21T12:17:12.250Z,97499.06
2022-08-21T12:19:42.657Z,97499.56
2022-08-21T12:22:13.493Z,97495.78
2022-08-21T12:24:42.810Z,97490.66
2022-08-21T12:27:27.633Z,97481.41
2022-08-21T12:29:58.714Z,97478.94
2022-08-21T12:32:29.216Z,97484.88
2022-08-21T12:35:03.309Z,97483.91
2022-08-21T12:37:36.820Z,97476.53
2022-08-21T12:40:06.724Z,97480.16
2022-08-21T12:42:39.514Z,97484.91
2022-08-21T12:45:20.730Z,97485.63
2022-08-21T12:47:50.627Z,97483.75
2022-08-21T12:50:21.841Z,97487.34
2022-08-21T12:52:53.458Z,97474.97
2022-08-21T12:55:28.562Z,97479.66
2022-08-21T12:57:56.922Z,97475.19
2022-08-21T13:00:28.223Z,97476.13
2022-08-21T13:02:56.551Z,97481.69
2022-08-21T13:05:33.260Z,97484.16
2022-08-21T13:08:01.282Z,97486.31
2022-08-21T13:10:31.079Z,97486.25
2022-08-21T13:13:00.825Z,97477.31
2022-08-21T13:15:33.272Z,97477.69
2022-08-21T13:18:03.581Z,97487.41
2022-08-21T13:20:34.253Z,97475.53
2022-08-21T13:23:02.548Z,97478.59
2022-08-21T13:25:32.632Z,97475.44
2022-08-21T13:28:02.508Z,97471.91
2022-08-21T13:30:31.512Z,97477.19
2022-08-21T13:33:00.867Z,97467.25
2022-08-21T13:35:31.075Z,97473.31
2022-08-21T13:38:00.768Z,97478.81
2022-08-21T13:40:30.344Z,97473.22
2022-08-21T13:42:58.463Z,97476.38
2022-08-21T13:45:27.446Z,97474.63
2022-08-21T13:47:57.777Z,97478.03
2022-08-21T13:50:27.702Z,97481.72
2022-08-21T13:53:02.548Z,97478.47
2022-08-21T13:55:38.450Z,97467.16
2022-08-21T13:58:07.096Z,97470.88
2022-08-21T14:00:36.359Z,97466.16
2022-08-21T14:03:07.217Z,97462.66
2022-08-21T14:05:36.590Z,97459.34
2022-08-21T14:08:09.182Z,97461.88
2022-08-21T14:10:41.611Z,97472.94
2022-08-21T14:13:09.676Z,97464.88
2022-08-21T14:15:37.599Z,97466.16
2022-08-21T14:18:10.396Z,97464.88
2022-08-21T14:20:38.308Z,97467.22
2022-08-21T14:23:07.706Z,97469.03
2022-08-21T14:25:43.859Z,97465.75
2022-08-21T14:28:19.725Z,97463.09
2022-08-21T14:30:47.799Z,97456.38
2022-08-21T14:33:22.860Z,97457.75
2022-08-21T14:35:50.803Z,97463.78
2022-08-21T14:38:23.254Z,97464.09
2022-08-21T14:40:53.857Z,97458.22
2022-08-21T14:43:22.134Z,97459.97
2022-08-21T14:45:50.627Z,97455.00
2022-08-21T14:48:18.787Z,97457.56
2022-08-21T14:50:47.214Z,97453.25
2022-08-21T14:53:15.570Z,97444.06
2022-08-21T14:56:02.572Z,97449.78
2022-08-21T14:58:31.094Z,97441.19
2022-08-21T15:00:59.257Z,97438.81
2022-08-21T15:03:27.549Z,97442.59
2022-08-21T15:05:55.610Z,97444.94
2022-08-21T15:08:23.498Z,97440.50
2022-08-21T15:11:11.114Z,97444.34
2022-08-21T15:13:40.733Z,97445.50
2022-08-21T15:16:09.687Z,97439.78
2022-08-21T15:18:37.879Z,97436.13
2022-08-21T15:21:06.553Z,97443.97
2022-08-21T15:23:34.416Z,97444.22
2022-08-21T15:26:03.695Z,97443.81
2022-08-21T15:28:32.024Z,97442.06
2022-08-21T15:31:00.615Z,97439.00
2022-08-21T15:33:28.562Z,97428.59
2022-08-21T15:35:56.537Z,97426.19
2022-08-21T15:38:24.455Z,97435.69
2022-08-21T15:40:52.811Z,97434.44
2022-08-21T15:43:30.057Z,97433.31
2022-08-21T15:45:58.985Z,97429.19
2022-08-21T15:48:27.009Z,97426.31
2022-08-21T15:50:55.334Z,97425.28
2022-08-21T15:53:23.361Z,97425.00
2022-08-21T15:55:51.638Z,97433.00
2022-08-21T15:58:20.961Z,97424.91
2022-08-21T16:00:50.286Z,97430.53
2022-08-21T16:03:20.816Z,97431.91
2022-08-21T16:05:50.000Z,97423.75
2022-08-21T16:08:18.050Z,97429.94
2022-08-21T16:10:45.906Z,97423.66
2022-08-21T16:13:17.317Z,97417.56
2022-08-21T16:15:45.336Z,97423.66
2022-08-21T16:18:14.732Z,97419.25
2022-08-21T16:20:42.723Z,97424.25
2022-08-21T16:23:10.605Z,97427.81
2022-08-21T16:25:38.844Z,97422.25
2022-08-21T16:28:09.241Z,97421.97
2022-08-21T16:30:41.242Z,97414.34
2022-08-21T16:33:09.614Z,97418.56
2022-08-21T16:35:39.074Z,97418.75
2022-08-21T16:38:07.239Z,97422.00
2022-08-21T16:40:40.336Z,97419.31
2022-08-21T16:43:08.301Z,97421.50
2022-08-21T16:45:36.731Z,97417.25
2022-08-21T16:48:09.699Z,97419.50
2022-08-21T16:50:39.260Z,97412.94
2022-08-21T16:53:08.089Z,97415.59
2022-08-21T16:55:36.741Z,97421.81
2022-08-21T16:58:05.979Z,97417.44
2022-08-21T17:00:34.014Z,97409.06
2022-08-21T17:03:02.565Z,97407.22
2022-08-21T17:05:33.068Z,97411.97
2022-08-21T17:08:02.559Z,97419.56
2022-08-21T17:10:30.876Z,97419.56
2022-08-21T17:12:59.420Z,97426.66
2022-08-21T17:15:30.513Z,97411.63
2022-08-21T17:18:02.824Z,97414.22
2022-08-21T17:20:31.648Z,97417.16
2022-08-21T17:22:59.718Z,97420.16
2022-08-21T17:25:29.097Z,97414.72
2022-08-21T17:27:57.090Z,97422.84
2022-08-21T17:30:25.524Z,97424.75
2022-08-21T17:32:54.609Z,97425.63
2022-08-21T17:35:22.626Z,97426.00
2022-08-21T17:37:50.924Z,97416.41
2022-08-21T17:40:19.420Z,97427.94
2022-08-21T17:42:48.952Z,97425.44
2022-08-21T17:45:18.417Z,97419.00
2022-08-21T17:47:46.454Z,97424.03
2022-08-21T17:50:14.915Z,97426.94
2022-08-21T17:52:50.840Z,97428.00
2022-08-21T17:55:20.474Z,97424.28
2022-08-21T17:57:51.235Z,97427.44
2022-08-21T18:00:20.059Z,97432.06
2022-08-21T18:02:51.222Z,97433.53
2022-08-21T18:05:20.260Z,97443.44
2022-08-21T18:07:48.499Z,97438.22
2022-08-21T18:10:16.689Z,97437.38
2022-08-21T18:12:45.445Z,97439.25
2022-08-21T18:15:15.425Z,97438.81
2022-08-21T18:17:45.376Z,97441.78
2022-08-21T18:20:13.964Z,97442.88
2022-08-21T18:22:41.863Z,97442.63
2022-08-21T18:25:10.253Z,97447.91
2022-08-21T18:27:38.566Z,97450.66
2022-08-21T18:30:08.029Z,97446.66
2022-08-21T18:32:42.617Z,97452.97
2022-08-21T18:35:11.346Z,97457.81
2022-08-21T18:37:39.724Z,97460.69
2022-08-21T18:40:09.661Z,97460.69
2022-08-21T18:42:39.747Z,97461.31
2022-08-21T18:45:11.414Z,97458.13
2022-08-21T18:47:43.194Z,97462.53
2022-08-21T18:50:12.416Z,97465.25
2022-08-21T18:53:11.134Z,97461.91
2022-08-21T18:55:41.871Z,97457.41
2022-08-21T18:58:10.121Z,97469.91
2022-08-21T19:00:45.541Z,97471.66
2022-08-21T19:03:15.206Z,97467.16
2022-08-21T19:05:50.487Z,97471.09
2022-08-21T19:08:19.886Z,97469.63
2022-08-21T19:10:48.549Z,97476.13
2022-08-21T19:13:17.934Z,97479.69
2022-08-21T19:15:47.058Z,97483.69
2022-08-21T19:18:16.406Z,97481.53
2022-08-21T19:20:47.314Z,97480.28
2022-08-21T19:23:16.952Z,97482.91
2022-08-21T19:25:51.672Z,97480.75
2022-08-21T19:28:24.043Z,97485.50
2022-08-21T19:30:56.165Z,97478.81
2022-08-21T19:33:29.503Z,97480.38
2022-08-21T19:35:57.411Z,97487.09
2022-08-21T19:38:25.434Z,97490.00
2022-08-21T19:40:53.941Z,97483.44
2022-08-21T19:43:23.244Z,97485.13
2022-08-21T19:45:52.142Z,97487.63
2022-08-21T19:48:20.551Z,97479.41
2022-08-21T19:50:49.984Z,97491.38
2022-08-21T19:53:19.029Z,97488.34
2022-08-21T19:55:48.483Z,97487.31
2022-08-21T19:58:27.443Z,97487.50
2022-08-21T20:00:58.836Z,97485.81
2022-08-21T20:03:26.872Z,97477.78
2022-08-21T20:05:56.701Z,97488.94
2022-08-21T20:08:27.989Z,97485.44
2022-08-21T20:10:57.076Z,97490.69
2022-08-21T20:13:26.106Z,97496.94
2022-08-21T20:15:54.186Z,97498.56
2022-08-21T20:18:27.057Z,97503.34
2022-08-21T20:20:56.814Z,97500.81
2022-08-21T20:26:15.504Z,97501.81
2022-08-21T20:28:43.526Z,97502.47
2022-08-21T20:31:14.632Z,97506.06
2022-08-21T20:33:43.087Z,97505.69
2022-08-21T20:36:13.502Z,97506.94
2022-08-21T20:38:41.428Z,97503.19
2022-08-21T20:41:16.302Z,97501.50
2022-08-21T20:43:49.600Z,97497.75
2022-08-21T20:46:21.703Z,97498.38
2022-08-21T20:48:50.019Z,97496.69
2022-08-21T20:51:22.976Z,97494.25
2022-08-21T20:53:57.674Z,97492.09
2022-08-21T20:56:36.034Z,97492.13
2022-08-21T20:59:07.599Z,97493.44
2022-08-21T21:01:35.580Z,97500.56
2022-08-21T21:04:05.910Z,97501.38
2022-08-21T21:06:39.406Z,97494.97
2022-08-21T21:09:11.507Z,97499.16
2022-08-21T21:11:42.918Z,97499.75
2022-08-21T21:14:13.274Z,97492.44
2022-08-21T21:16:50.542Z,97489.53
2022-08-21T21:19:22.040Z,97498.97
2022-08-21T21:21:54.394Z,97494.00
2022-08-21T21:24:27.596Z,97488.03
2022-08-21T21:26:59.120Z,97493.84
2022-08-21T21:29:29.814Z,97486.88
2022-08-21T21:31:58.022Z,97488.09
2022-08-21T21:34:28.089Z,97496.59
2022-08-21T21:37:00.637Z,97484.34
2022-08-21T21:39:36.084Z,97491.78
2022-08-21T21:42:09.629Z,97482.72
2022-08-21T21:44:52.201Z,97493.09
2022-08-21T21:47:24.745Z,97486.44
2022-08-21T21:50:03.594Z,97486.94
2022-08-21T21:52:41.189Z,97482.78
2022-08-21T21:55:26.080Z,97485.50
2022-08-21T21:58:10.498Z,97486.94
2022-08-21T22:00:52.180Z,97486.47
2022-08-21T22:03:23.046Z,97491.63
2022-08-21T22:05:56.330Z,97492.00
2022-08-21T22:08:33.225Z,97487.59
2022-08-21T22:11:09.039Z,97489.66
2022-08-21T22:13:59.912Z,97493.31
2022-08-21T22:16:28.318Z,97493.81
2022-08-21T22:18:57.760Z,97491.09
2022-08-21T22:21:28.988Z,97488.38
2022-08-21T22:24:07.132Z,97491.63
2022-08-21T22:26:44.196Z,97495.31
2022-08-21T22:29:14.814Z,97496.81
2022-08-21T22:31:42.967Z,97498.03
2022-08-21T22:34:18.120Z,97497.66
2022-08-21T22:36:51.809Z,97497.53
2022-08-21T22:39:27.932Z,97496.69
2022-08-21T22:41:55.839Z,97502.22
2022-08-21T22:44:27.216Z,97500.53
2022-08-21T22:46:56.858Z,97499.84
2022-08-21T22:49:31.148Z,97502.41
2022-08-21T22:52:08.410Z,97503.81
2022-08-21T22:54:41.943Z,97506.88
2022-08-21T22:57:13.129Z,97509.78
2022-08-21T22:59:42.706Z,97508.50
2022-08-21T23:02:26.396Z,97508.00
2022-08-21T23:04:54.491Z,97504.53
2022-08-21T23:07:36.584Z,97511.59
2022-08-21T23:10:21.122Z,97504.53
2022-08-21T23:12:50.836Z,97508.06
2022-08-21T23:15:23.377Z,97515.66
2022-08-21T23:17:54.555Z,97508.88
2022-08-21T23:20:25.986Z,97510.47
2022-08-21T23:23:00.607Z,97514.53
2022-08-21T23:25:59.632Z,97509.63
2022-08-21T23:28:35.192Z,97502.66
2022-08-21T23:31:07.910Z,97503.34
2022-08-21T23:34:06.026Z,97499.97
2022-08-21T23:36:56.965Z,97505.88
2022-08-21T23:39:35.126Z,97501.44
2022-08-21T23:42:22.643Z,97493.63
2022-08-21T23:44:58.088Z,97496.25
2022-08-21T23:47:35.698Z,97498.91
2022-08-21T23:50:14.260Z,97506.47
2022-08-21T23:52:49.411Z,97503.75
2022-08-21T23:55:24.711Z,97502.41
2022-08-21T23:58:02.086Z,97492.06
